CYCD

Nanaimo Airport

Nanaimo, British Columbia, Canada

CYCD 192300Z 27003KT 15SM -SHRA SCT019TCU OVC070 12/11 A2974 RMK TCU4AC4 VERY LIGHT SHRA SLP072

Observed Flight Rules
Sep-19 @ 23:00 UTC (an hour ago)
 
Visual Flight Rules
Wind Visibility Clouds Conditions
270° at 3 knots 15 miles
  • Scattered at 1,900' AGL
  • Overcast at 7,000' AGL
  • Light Rain
Temperatures Readings
Current 12°C / 54°F
Dewpoint 11°C / 52°F
Humidity 94%
Altimeter 29.74" Hg
Pressure 1007.2 hPa
Elevation 30
Observed Flight Rules
Sep-19 @ 23:00 UTC
(an hour ago)
 
VFR
Wind Visibility
270° at 3 knots 15 miles
Clouds Conditions
  • Scattered at 1,900' AGL
  • Overcast at 7,000' AGL
  • Light Rain
Temperature Dewpoint
12°C / 54°F 11°C / 52°F
Humidity Altimeter Pressure
94% 29.74" Hg 1007.2 hPa